createdAt,value
2022-09-28T00:06:47.517Z,6.40
2022-09-28T00:12:44.639Z,6.43
2022-09-28T00:23:31.035Z,6.42
2022-09-28T00:27:45.057Z,6.42
2022-09-28T00:41:54.159Z,6.52
2022-09-28T01:05:58.244Z,6.66
2022-09-28T01:17:17.744Z,6.74
2022-09-28T01:36:29.060Z,6.80
2022-09-28T01:44:39.947Z,6.87
2022-09-28T01:57:13.485Z,6.92
2022-09-28T02:00:29.537Z,6.92
2022-09-28T02:11:34.464Z,6.85
2022-09-28T02:18:54.112Z,6.78
2022-09-28T02:33:45.096Z,6.75
2022-09-28T02:36:02.850Z,6.75
2022-09-28T02:54:01.605Z,6.63
2022-09-28T03:16:58.889Z,6.41
2022-09-28T03:25:15.056Z,6.26
2022-09-28T03:52:35.559Z,6.00
2022-09-28T04:01:17.692Z,5.95
2022-09-28T04:05:00.478Z,5.98
2022-09-28T04:18:53.010Z,6.23
2022-09-28T04:22:25.071Z,6.25
2022-09-28T04:29:56.916Z,6.26
2022-09-28T04:33:55.159Z,6.25
2022-09-28T04:37:08.404Z,6.22
2022-09-28T04:40:48.648Z,6.18
2022-09-28T04:43:44.072Z,6.19
2022-09-28T04:46:40.614Z,6.21
2022-09-28T04:49:45.487Z,6.25
2022-09-28T04:53:21.488Z,6.26
2022-09-28T04:57:11.696Z,6.23
2022-09-28T04:59:59.544Z,6.21
2022-09-28T05:03:14.655Z,6.18
2022-09-28T05:06:36.590Z,6.11
2022-09-28T05:09:37.706Z,6.03
2022-09-28T05:17:35.590Z,5.86
2022-09-28T05:36:30.839Z,5.61
2022-09-28T05:40:00.765Z,5.61
2022-09-28T05:42:35.738Z,5.60
2022-09-28T05:57:17.558Z,5.46
2022-09-28T06:00:19.665Z,5.43
2022-09-28T06:03:46.871Z,5.44
2022-09-28T06:07:01.057Z,5.44
2022-09-28T06:51:57.553Z,7.10
2022-09-28T06:55:19.573Z,7.20
2022-09-28T07:01:38.053Z,7.27
2022-09-28T07:09:32.990Z,7.63
2022-09-28T07:13:02.811Z,7.69
2022-09-28T07:24:13.453Z,7.83
2022-09-28T07:27:34.495Z,7.82
2022-09-28T07:30:35.456Z,7.70
2022-09-28T07:33:46.466Z,7.67
2022-09-28T07:38:00.966Z,7.69
2022-09-28T07:43:59.335Z,7.83
2022-09-28T07:46:37.929Z,7.98
2022-09-28T07:49:16.780Z,8.16
2022-09-28T07:52:08.659Z,8.27
2022-09-28T07:54:56.691Z,8.33
2022-09-28T07:58:26.834Z,8.34
2022-09-28T08:09:30.565Z,8.55
2022-09-28T08:11:20.475Z,8.44
2022-09-28T08:17:05.768Z,8.63
2022-09-28T08:29:15.517Z,8.80
2022-09-28T08:50:18.290Z,9.35
2022-09-28T09:10:33.716Z,10.45
2022-09-28T09:22:18.957Z,10.78
2022-09-28T09:24:55.374Z,10.99
2022-09-28T09:27:44.687Z,11.11
2022-09-28T09:30:20.199Z,11.22
2022-09-28T09:33:04.993Z,11.31
2022-09-28T09:35:54.025Z,11.28
2022-09-28T09:39:01.094Z,11.15
2022-09-28T09:41:50.600Z,11.18
2022-09-28T09:45:02.323Z,11.31
2022-09-28T09:48:00.188Z,11.42
2022-09-28T09:50:40.085Z,11.42
2022-09-28T09:53:29.700Z,11.47
2022-09-28T09:56:05.555Z,11.65
2022-09-28T10:00:00.086Z,11.89
2022-09-28T10:02:46.746Z,12.10
2022-09-28T10:13:19.038Z,12.48
2022-09-28T10:16:30.845Z,13.53
2022-09-28T10:30:49.575Z,15.11
2022-09-28T10:37:20.368Z,14.31
2022-09-28T10:44:51.388Z,14.52
2022-09-28T10:48:04.305Z,16.01
2022-09-28T10:51:10.771Z,15.80
2022-09-28T11:00:00.979Z,16.45
2022-09-28T11:02:35.414Z,15.90
2022-09-28T11:17:37.231Z,16.76
2022-09-28T11:29:33.620Z,15.37
2022-09-28T11:36:00.590Z,14.15
2022-09-28T11:39:01.778Z,13.75
2022-09-28T11:42:20.856Z,13.40
2022-09-28T11:45:59.641Z,13.15
2022-09-28T11:59:04.379Z,13.35
2022-09-28T12:05:46.883Z,13.41
2022-09-28T12:09:03.514Z,13.40
2022-09-28T12:12:38.587Z,13.33
2022-09-28T12:16:07.465Z,13.52
2022-09-28T12:29:55.915Z,13.69
2022-09-28T12:32:42.929Z,13.85
2022-09-28T12:35:35.460Z,13.92
2022-09-28T12:39:30.659Z,13.75
2022-09-28T12:50:36.202Z,13.51
2022-09-28T12:53:08.877Z,13.28
2022-09-28T12:56:02.784Z,13.04
2022-09-28T12:59:17.730Z,13.67
2022-09-28T13:06:05.242Z,15.29
2022-09-28T13:08:50.936Z,15.33
2022-09-28T13:12:12.032Z,16.92
2022-09-28T13:15:29.542Z,19.77
2022-09-28T13:18:27.740Z,22.10
2022-09-28T13:21:18.871Z,22.65
2022-09-28T13:24:30.953Z,22.15
2022-09-28T13:33:29.517Z,18.61
2022-09-28T13:36:36.207Z,17.41
2022-09-28T13:40:03.087Z,16.33
2022-09-28T13:43:29.056Z,15.41
2022-09-28T13:46:40.813Z,14.84
2022-09-28T13:49:35.686Z,14.40
2022-09-28T13:52:33.856Z,14.00
2022-09-28T13:55:36.732Z,13.62
2022-09-28T13:58:38.483Z,13.45
2022-09-28T14:01:20.608Z,13.41
2022-09-28T14:04:22.484Z,13.38
2022-09-28T14:11:01.384Z,13.03
2022-09-28T14:17:54.884Z,12.66
2022-09-28T14:20:35.644Z,12.57
2022-09-28T14:23:44.406Z,12.49
2022-09-28T14:27:11.560Z,12.31
2022-09-28T14:29:44.398Z,12.22
2022-09-28T14:32:37.390Z,12.24
2022-09-28T14:35:18.921Z,12.31
2022-09-28T14:38:11.348Z,12.37
2022-09-28T14:41:21.224Z,12.29
2022-09-28T14:48:45.505Z,11.84
2022-09-28T14:52:05.459Z,11.72
2022-09-28T14:55:08.475Z,11.67
2022-09-28T14:57:58.990Z,11.63
2022-09-28T15:00:40.509Z,11.57
2022-09-28T15:10:48.836Z,11.34
2022-09-28T15:13:28.525Z,11.28
2022-09-28T15:16:13.856Z,11.24
2022-09-28T15:19:11.058Z,11.16
2022-09-28T15:21:45.591Z,11.00
2022-09-28T15:24:40.909Z,10.89
2022-09-28T15:27:20.346Z,10.81
2022-09-28T15:30:00.874Z,10.77
2022-09-28T15:32:33.284Z,10.69
2022-09-28T15:35:20.861Z,10.62
2022-09-28T15:37:56.972Z,10.56
2022-09-28T15:40:35.447Z,10.53
2022-09-28T15:43:27.608Z,10.48
2022-09-28T15:46:10.650Z,10.46
2022-09-28T15:48:59.552Z,10.44
2022-09-28T15:51:50.485Z,10.41
2022-09-28T15:54:32.328Z,10.38
2022-09-28T15:58:48.339Z,10.44
2022-09-28T16:01:38.259Z,10.43
2022-09-28T16:04:39.489Z,10.40
2022-09-28T16:07:31.735Z,10.35
2022-09-28T16:10:38.897Z,10.28
2022-09-28T16:13:29.409Z,10.22
2022-09-28T16:16:08.148Z,10.20
2022-09-28T16:18:49.389Z,10.18
2022-09-28T16:21:46.202Z,10.16
2022-09-28T16:24:33.704Z,10.12
2022-09-28T16:27:07.719Z,10.07
2022-09-28T16:30:03.976Z,9.99
2022-09-28T16:32:55.051Z,9.91
2022-09-28T16:38:59.779Z,9.74
2022-09-28T16:41:35.102Z,9.63
2022-09-28T16:44:07.116Z,9.52
2022-09-28T16:46:54.399Z,9.43
2022-09-28T16:50:23.426Z,9.37
2022-09-28T17:00:04.416Z,9.16
2022-09-28T17:02:58.916Z,9.10
2022-09-28T17:03:18.535Z,9.24
2022-09-28T17:05:54.468Z,9.04
2022-09-28T17:08:46.198Z,8.96
2022-09-28T17:11:28.071Z,8.94
2022-09-28T17:14:00.434Z,8.90
2022-09-28T17:16:58.181Z,8.88
2022-09-28T17:19:27.680Z,8.86
2022-09-28T17:21:59.136Z,8.82
2022-09-28T17:24:30.772Z,8.78
2022-09-28T17:27:03.381Z,8.75
2022-09-28T17:29:34.520Z,8.66
2022-09-28T17:32:07.469Z,8.72
2022-09-28T17:34:36.957Z,8.71
2022-09-28T17:37:07.894Z,8.68
2022-09-28T17:39:39.258Z,8.65
2022-09-28T17:42:11.049Z,8.63
2022-09-28T17:44:42.206Z,8.59
2022-09-28T17:47:16.529Z,8.59
2022-09-28T17:49:54.523Z,8.59
2022-09-28T17:52:26.211Z,8.52
2022-09-28T17:54:57.951Z,8.56
2022-09-28T17:57:32.226Z,8.54
2022-09-28T18:00:05.513Z,8.52
2022-09-28T18:08:36.801Z,8.53
2022-09-28T18:11:08.176Z,8.48
2022-09-28T18:13:39.833Z,8.46
2022-09-28T18:16:13.175Z,8.44
2022-09-28T18:18:44.602Z,8.41
2022-09-28T18:21:15.603Z,8.39
2022-09-28T18:23:46.885Z,8.38
2022-09-28T18:26:19.710Z,8.37
2022-09-28T18:28:50.888Z,8.38
2022-09-28T18:31:21.922Z,8.38
2022-09-28T18:33:57.864Z,8.37
2022-09-28T18:36:32.315Z,8.34
2022-09-28T18:39:03.692Z,8.36
2022-09-28T18:41:35.653Z,8.37
2022-09-28T18:44:06.359Z,8.38
2022-09-28T18:46:38.077Z,8.39
2022-09-28T18:49:12.712Z,8.39
2022-09-28T18:51:43.867Z,8.38
2022-09-28T18:54:15.518Z,8.38
2022-09-28T18:56:46.646Z,8.37
2022-09-28T18:59:18.154Z,8.38
2022-09-28T19:01:49.372Z,8.39
2022-09-28T19:04:21.423Z,8.41
2022-09-28T19:06:54.424Z,8.41
2022-09-28T19:09:24.718Z,8.39
2022-09-28T19:11:56.493Z,8.35
2022-09-28T19:14:27.554Z,8.31
2022-09-28T19:16:59.126Z,8.31
2022-09-28T19:25:11.007Z,8.32
2022-09-28T19:27:42.379Z,8.29
2022-09-28T19:30:15.326Z,8.28
2022-09-28T19:32:46.787Z,8.26
2022-09-28T19:35:17.917Z,8.25
2022-09-28T19:37:50.047Z,8.24
2022-09-28T19:40:21.437Z,8.24
2022-09-28T19:43:04.263Z,8.25
2022-09-28T19:45:38.203Z,8.23
2022-09-28T19:48:12.371Z,8.23
2022-09-28T19:50:43.810Z,8.20
2022-09-28T19:53:15.569Z,8.16
2022-09-28T19:55:55.178Z,8.12
2022-09-28T19:58:29.500Z,8.08
2022-09-28T20:01:00.429Z,8.07
2022-09-28T20:03:31.691Z,8.04
2022-09-28T20:06:05.726Z,8.00
2022-09-28T20:08:39.205Z,7.95
2022-09-28T20:11:13.213Z,7.90
2022-09-28T20:13:57.217Z,7.86
2022-09-28T20:16:42.400Z,7.83
2022-09-28T20:19:13.512Z,7.81
2022-09-28T20:21:49.262Z,7.78
2022-09-28T20:24:20.453Z,7.74
2022-09-28T20:26:51.401Z,7.68
2022-09-28T20:29:26.933Z,7.63
2022-09-28T20:32:01.707Z,7.58
2022-09-28T20:34:41.248Z,7.53
2022-09-28T20:37:16.820Z,7.51
2022-09-28T20:39:50.308Z,7.50
2022-09-28T20:42:24.356Z,7.49
2022-09-28T20:44:58.472Z,7.52
2022-09-28T20:47:32.671Z,7.60
2022-09-28T20:50:11.291Z,7.66
2022-09-28T20:52:45.912Z,7.72
2022-09-28T20:55:17.554Z,7.75
2022-09-28T20:57:48.643Z,7.78
2022-09-28T21:00:20.870Z,7.80
2022-09-28T21:02:55.433Z,7.82
2022-09-28T21:05:26.472Z,7.81
2022-09-28T21:07:57.757Z,7.79
2022-09-28T21:10:30.424Z,7.75
2022-09-28T21:13:01.355Z,7.71
2022-09-28T21:15:32.399Z,7.67
2022-09-28T21:18:03.414Z,7.65
2022-09-28T21:20:35.038Z,7.63
2022-09-28T21:23:06.914Z,7.61
2022-09-28T21:25:38.181Z,7.59
2022-09-28T21:28:09.192Z,7.54
2022-09-28T21:30:41.958Z,7.50
2022-09-28T21:33:11.486Z,7.45
2022-09-28T21:35:42.694Z,7.41
2022-09-28T21:38:14.017Z,7.36
2022-09-28T21:40:45.554Z,7.32
2022-09-28T21:43:17.322Z,7.30
2022-09-28T21:45:52.196Z,7.26
2022-09-28T21:48:28.951Z,7.18
2022-09-28T21:51:01.668Z,7.07
2022-09-28T21:53:34.372Z,6.95
2022-09-28T21:56:06.850Z,6.85
2022-09-28T21:58:38.542Z,6.73
2022-09-28T22:01:15.024Z,6.64
2022-09-28T22:03:47.433Z,6.56
2022-09-28T22:06:19.649Z,6.48
2022-09-28T22:08:51.280Z,6.40
2022-09-28T22:11:24.117Z,6.31
2022-09-28T22:14:07.969Z,6.22
2022-09-28T22:16:40.860Z,6.11
2022-09-28T22:19:49.239Z,6.04
2022-09-28T22:22:30.745Z,5.98
2022-09-28T22:25:13.185Z,5.95
2022-09-28T22:28:00.470Z,5.89
2022-09-28T22:30:54.823Z,5.87
2022-09-28T22:33:46.194Z,5.80
2022-09-28T22:36:23.735Z,5.77
2022-09-28T22:39:27.298Z,5.73
2022-09-28T22:42:44.935Z,5.70
2022-09-28T22:46:00.833Z,5.69
2022-09-28T22:55:44.453Z,5.60
2022-09-28T23:04:32.403Z,5.54
2022-09-28T23:07:08.745Z,5.51
2022-09-28T23:10:12.739Z,5.48
2022-09-28T23:13:53.427Z,5.44
2022-09-28T23:16:51.354Z,5.38
2022-09-28T23:23:00.737Z,5.32
2022-09-28T23:29:54.259Z,5.30
2022-09-28T23:33:05.186Z,5.27
2022-09-28T23:36:25.857Z,5.23
2022-09-28T23:43:18.922Z,5.22
2022-09-28T23:50:15.593Z,5.28
